sensor_id;sensor_type;location;lat;lon;timestamp;temperature;humidity
22633;DHT22;11483;55.828;37.488;2022-09-27T00:01:02;7.50;99.90
22633;DHT22;11483;55.828;37.488;2022-09-27T00:03:29;7.50;99.90
22633;DHT22;11483;55.828;37.488;2022-09-27T00:06:17;7.50;99.90
22633;DHT22;11483;55.828;37.488;2022-09-27T00:08:45;7.50;99.90
22633;DHT22;11483;55.828;37.488;2022-09-27T00:13:46;7.50;99.90
22633;DHT22;11483;55.828;37.488;2022-09-27T00:16:12;7.50;99.90
22633;DHT22;11483;55.828;37.488;2022-09-27T00:18:38;7.50;99.90
22633;DHT22;11483;55.828;37.488;2022-09-27T00:21:09;7.50;99.90
22633;DHT22;11483;55.828;37.488;2022-09-27T00:23:36;7.50;99.90
22633;DHT22;11483;55.828;37.488;2022-09-27T00:26:03;7.50;99.90
22633;DHT22;11483;55.828;37.488;2022-09-27T00:28:29;7.50;99.90
22633;DHT22;11483;55.828;37.488;2022-09-27T00:30:56;7.40;99.90
22633;DHT22;11483;55.828;37.488;2022-09-27T00:33:22;7.40;99.90
22633;DHT22;11483;55.828;37.488;2022-09-27T00:35:48;7.30;99.90
22633;DHT22;11483;55.828;37.488;2022-09-27T00:38:14;7.30;99.90
22633;DHT22;11483;55.828;37.488;2022-09-27T00:40:40;7.20;99.90
22633;DHT22;11483;55.828;37.488;2022-09-27T00:43:41;7.10;99.90
22633;DHT22;11483;55.828;37.488;2022-09-27T00:46:08;7.10;99.90
22633;DHT22;11483;55.828;37.488;2022-09-27T00:48:34;7.10;99.90
22633;DHT22;11483;55.828;37.488;2022-09-27T00:51:03;7.10;99.90
22633;DHT22;11483;55.828;37.488;2022-09-27T00:53:49;7.10;99.90
22633;DHT22;11483;55.828;37.488;2022-09-27T00:56:22;7.00;99.90
22633;DHT22;11483;55.828;37.488;2022-09-27T00:58:57;7.00;99.90
22633;DHT22;11483;55.828;37.488;2022-09-27T01:01:24;7.00;99.90
22633;DHT22;11483;55.828;37.488;2022-09-27T01:04:03;7.00;99.90
22633;DHT22;11483;55.828;37.488;2022-09-27T01:06:30;7.00;99.90
22633;DHT22;11483;55.828;37.488;2022-09-27T01:08:58;7.00;99.90
22633;DHT22;11483;55.828;37.488;2022-09-27T01:22:29;6.90;99.90
22633;DHT22;11483;55.828;37.488;2022-09-27T01:30:52;6.80;99.90
22633;DHT22;11483;55.828;37.488;2022-09-27T01:41:28;6.70;99.90
22633;DHT22;11483;55.828;37.488;2022-09-27T01:44:16;6.70;99.90
22633;DHT22;11483;55.828;37.488;2022-09-27T01:46:49;6.60;99.90
22633;DHT22;11483;55.828;37.488;2022-09-27T01:49:25;6.60;99.90
22633;DHT22;11483;55.828;37.488;2022-09-27T01:51:59;6.50;99.90
22633;DHT22;11483;55.828;37.488;2022-09-27T01:54:44;6.50;99.90
22633;DHT22;11483;55.828;37.488;2022-09-27T01:57:14;6.60;99.90
22633;DHT22;11483;55.828;37.488;2022-09-27T01:59:53;6.60;99.90
22633;DHT22;11483;55.828;37.488;2022-09-27T02:02:23;6.70;99.90
22633;DHT22;11483;55.828;37.488;2022-09-27T02:04:51;6.70;99.90
22633;DHT22;11483;55.828;37.488;2022-09-27T02:07:28;6.70;99.90
22633;DHT22;11483;55.828;37.488;2022-09-27T02:10:20;6.60;99.90
22633;DHT22;11483;55.828;37.488;2022-09-27T02:12:57;6.60;99.90
22633;DHT22;11483;55.828;37.488;2022-09-27T02:15:26;6.60;99.90
22633;DHT22;11483;55.828;37.488;2022-09-27T02:20:40;6.50;99.90
22633;DHT22;11483;55.828;37.488;2022-09-27T02:23:34;6.50;99.90
22633;DHT22;11483;55.828;37.488;2022-09-27T02:26:41;6.50;99.90
22633;DHT22;11483;55.828;37.488;2022-09-27T02:31:54;6.50;99.90
22633;DHT22;11483;55.828;37.488;2022-09-27T02:34:30;6.50;99.90
22633;DHT22;11483;55.828;37.488;2022-09-27T02:37:03;6.50;99.90
22633;DHT22;11483;55.828;37.488;2022-09-27T02:39:29;6.50;99.90
22633;DHT22;11483;55.828;37.488;2022-09-27T02:41:55;6.50;99.90
22633;DHT22;11483;55.828;37.488;2022-09-27T02:44:23;6.50;99.90
22633;DHT22;11483;55.828;37.488;2022-09-27T02:52:05;6.30;99.90
22633;DHT22;11483;55.828;37.488;2022-09-27T02:54:58;6.30;99.90
22633;DHT22;11483;55.828;37.488;2022-09-27T02:57:42;6.30;99.90
22633;DHT22;11483;55.828;37.488;2022-09-27T03:00:16;6.30;99.90
22633;DHT22;11483;55.828;37.488;2022-09-27T03:05:40;6.40;99.90
22633;DHT22;11483;55.828;37.488;2022-09-27T03:08:09;6.40;99.90
22633;DHT22;11483;55.828;37.488;2022-09-27T03:10:36;6.50;99.90
22633;DHT22;11483;55.828;37.488;2022-09-27T03:13:02;6.50;99.90
22633;DHT22;11483;55.828;37.488;2022-09-27T03:15:29;6.50;99.90
22633;DHT22;11483;55.828;37.488;2022-09-27T03:17:55;6.50;99.90
22633;DHT22;11483;55.828;37.488;2022-09-27T03:20:21;6.60;99.90
22633;DHT22;11483;55.828;37.488;2022-09-27T03:22:47;6.60;99.90
22633;DHT22;11483;55.828;37.488;2022-09-27T03:25:13;6.60;99.90
22633;DHT22;11483;55.828;37.488;2022-09-27T03:27:39;6.60;99.90
22633;DHT22;11483;55.828;37.488;2022-09-27T03:30:06;6.60;99.90
22633;DHT22;11483;55.828;37.488;2022-09-27T03:32:32;6.50;99.90
22633;DHT22;11483;55.828;37.488;2022-09-27T03:34:58;6.50;99.90
22633;DHT22;11483;55.828;37.488;2022-09-27T03:37:24;6.60;99.90
22633;DHT22;11483;55.828;37.488;2022-09-27T03:39:53;6.70;99.90
22633;DHT22;11483;55.828;37.488;2022-09-27T03:42:19;6.70;99.90
22633;DHT22;11483;55.828;37.488;2022-09-27T03:44:45;6.80;99.90
22633;DHT22;11483;55.828;37.488;2022-09-27T03:47:11;6.90;99.90
22633;DHT22;11483;55.828;37.488;2022-09-27T03:49:37;6.90;99.90
22633;DHT22;11483;55.828;37.488;2022-09-27T03:52:03;6.90;99.90
22633;DHT22;11483;55.828;37.488;2022-09-27T03:54:29;6.90;99.90
22633;DHT22;11483;55.828;37.488;2022-09-27T03:56:55;7.00;99.90
22633;DHT22;11483;55.828;37.488;2022-09-27T03:59:21;7.00;99.90
22633;DHT22;11483;55.828;37.488;2022-09-27T04:01:47;7.00;99.90
22633;DHT22;11483;55.828;37.488;2022-09-27T04:04:13;7.00;99.90
22633;DHT22;11483;55.828;37.488;2022-09-27T04:06:39;7.10;99.90
22633;DHT22;11483;55.828;37.488;2022-09-27T04:09:05;7.10;99.90
22633;DHT22;11483;55.828;37.488;2022-09-27T04:11:31;7.20;99.90
22633;DHT22;11483;55.828;37.488;2022-09-27T04:13:57;7.20;99.90
22633;DHT22;11483;55.828;37.488;2022-09-27T04:16:23;7.20;99.90
22633;DHT22;11483;55.828;37.488;2022-09-27T04:18:50;7.30;99.90
22633;DHT22;11483;55.828;37.488;2022-09-27T04:21:16;7.40;99.90
22633;DHT22;11483;55.828;37.488;2022-09-27T04:23:41;7.50;99.90
22633;DHT22;11483;55.828;37.488;2022-09-27T04:26:07;7.60;99.90
22633;DHT22;11483;55.828;37.488;2022-09-27T04:28:34;7.80;99.90
22633;DHT22;11483;55.828;37.488;2022-09-27T04:30:59;8.00;99.90
22633;DHT22;11483;55.828;37.488;2022-09-27T04:33:25;8.10;99.90
22633;DHT22;11483;55.828;37.488;2022-09-27T04:35:51;8.20;99.90
22633;DHT22;11483;55.828;37.488;2022-09-27T04:38:36;8.40;99.90
22633;DHT22;11483;55.828;37.488;2022-09-27T04:41:01;8.50;99.90
22633;DHT22;11483;55.828;37.488;2022-09-27T04:43:28;8.70;99.90
22633;DHT22;11483;55.828;37.488;2022-09-27T04:45:54;8.80;99.90
22633;DHT22;11483;55.828;37.488;2022-09-27T04:48:20;9.00;99.90
22633;DHT22;11483;55.828;37.488;2022-09-27T04:50:46;9.00;99.90
22633;DHT22;11483;55.828;37.488;2022-09-27T04:53:13;9.20;99.90
22633;DHT22;11483;55.828;37.488;2022-09-27T04:55:44;9.30;99.90
22633;DHT22;11483;55.828;37.488;2022-09-27T04:58:10;9.30;99.90
22633;DHT22;11483;55.828;37.488;2022-09-27T05:00:36;9.30;99.90
22633;DHT22;11483;55.828;37.488;2022-09-27T05:03:02;9.40;99.90
22633;DHT22;11483;55.828;37.488;2022-09-27T05:05:28;9.40;99.90
22633;DHT22;11483;55.828;37.488;2022-09-27T05:07:54;9.40;99.90
22633;DHT22;11483;55.828;37.488;2022-09-27T05:10:20;9.60;99.90
22633;DHT22;11483;55.828;37.488;2022-09-27T05:12:46;9.70;99.90
22633;DHT22;11483;55.828;37.488;2022-09-27T05:15:11;9.60;99.90
22633;DHT22;11483;55.828;37.488;2022-09-27T05:17:37;9.70;99.90
22633;DHT22;11483;55.828;37.488;2022-09-27T05:20:04;9.80;99.90
22633;DHT22;11483;55.828;37.488;2022-09-27T05:22:30;10.00;99.90
22633;DHT22;11483;55.828;37.488;2022-09-27T05:24:56;10.10;99.90
22633;DHT22;11483;55.828;37.488;2022-09-27T05:27:22;10.30;99.90
22633;DHT22;11483;55.828;37.488;2022-09-27T05:29:48;10.40;99.90
22633;DHT22;11483;55.828;37.488;2022-09-27T05:32:14;10.30;99.90
22633;DHT22;11483;55.828;37.488;2022-09-27T05:34:40;10.40;99.90
22633;DHT22;11483;55.828;37.488;2022-09-27T05:37:06;10.50;99.90
22633;DHT22;11483;55.828;37.488;2022-09-27T05:39:32;10.60;99.90
22633;DHT22;11483;55.828;37.488;2022-09-27T05:41:59;10.60;99.90
22633;DHT22;11483;55.828;37.488;2022-09-27T05:44:31;10.60;99.90
22633;DHT22;11483;55.828;37.488;2022-09-27T05:47:00;10.70;99.90
22633;DHT22;11483;55.828;37.488;2022-09-27T05:49:28;10.70;99.90
22633;DHT22;11483;55.828;37.488;2022-09-27T05:51:54;10.70;99.90
22633;DHT22;11483;55.828;37.488;2022-09-27T05:54:20;10.80;99.90
22633;DHT22;11483;55.828;37.488;2022-09-27T05:56:46;11.00;99.90
22633;DHT22;11483;55.828;37.488;2022-09-27T05:59:12;10.90;99.90
22633;DHT22;11483;55.828;37.488;2022-09-27T06:01:38;10.90;99.90
22633;DHT22;11483;55.828;37.488;2022-09-27T06:04:04;11.10;99.90
22633;DHT22;11483;55.828;37.488;2022-09-27T06:06:30;11.10;99.90
22633;DHT22;11483;55.828;37.488;2022-09-27T06:08:58;11.20;99.90
22633;DHT22;11483;55.828;37.488;2022-09-27T06:11:25;11.40;99.90
22633;DHT22;11483;55.828;37.488;2022-09-27T06:13:52;11.60;99.90
22633;DHT22;11483;55.828;37.488;2022-09-27T06:16:18;11.60;99.90
22633;DHT22;11483;55.828;37.488;2022-09-27T06:18:44;11.60;99.90
22633;DHT22;11483;55.828;37.488;2022-09-27T06:21:10;11.70;99.90
22633;DHT22;11483;55.828;37.488;2022-09-27T06:23:37;11.70;99.90
22633;DHT22;11483;55.828;37.488;2022-09-27T06:26:05;11.80;99.90
22633;DHT22;11483;55.828;37.488;2022-09-27T06:28:32;12.10;99.90
22633;DHT22;11483;55.828;37.488;2022-09-27T06:31:03;12.40;99.90
22633;DHT22;11483;55.828;37.488;2022-09-27T06:33:29;12.70;99.90
22633;DHT22;11483;55.828;37.488;2022-09-27T06:36:00;13.10;99.90
22633;DHT22;11483;55.828;37.488;2022-09-27T06:38:26;13.30;99.90
22633;DHT22;11483;55.828;37.488;2022-09-27T06:40:52;13.50;99.90
22633;DHT22;11483;55.828;37.488;2022-09-27T06:43:19;13.60;99.90
22633;DHT22;11483;55.828;37.488;2022-09-27T06:45:46;13.80;99.90
22633;DHT22;11483;55.828;37.488;2022-09-27T06:48:13;14.00;99.90
22633;DHT22;11483;55.828;37.488;2022-09-27T06:50:42;14.20;99.90
22633;DHT22;11483;55.828;37.488;2022-09-27T06:53:13;14.40;99.90
22633;DHT22;11483;55.828;37.488;2022-09-27T06:55:40;14.40;99.90
22633;DHT22;11483;55.828;37.488;2022-09-27T06:58:06;14.50;99.90
22633;DHT22;11483;55.828;37.488;2022-09-27T07:00:52;14.70;99.90
22633;DHT22;11483;55.828;37.488;2022-09-27T07:03:22;14.80;99.90
22633;DHT22;11483;55.828;37.488;2022-09-27T07:05:58;14.80;99.90
22633;DHT22;11483;55.828;37.488;2022-09-27T07:08:25;14.80;99.90
22633;DHT22;11483;55.828;37.488;2022-09-27T07:10:54;14.80;99.90
22633;DHT22;11483;55.828;37.488;2022-09-27T07:13:21;14.70;99.90
22633;DHT22;11483;55.828;37.488;2022-09-27T07:15:47;14.60;99.90
22633;DHT22;11483;55.828;37.488;2022-09-27T07:18:14;14.30;99.90
22633;DHT22;11483;55.828;37.488;2022-09-27T07:20:39;14.30;99.90
22633;DHT22;11483;55.828;37.488;2022-09-27T07:25:33;14.20;99.90
22633;DHT22;11483;55.828;37.488;2022-09-27T07:28:05;14.10;99.90
22633;DHT22;11483;55.828;37.488;2022-09-27T07:30:32;14.00;99.90
22633;DHT22;11483;55.828;37.488;2022-09-27T07:32:59;14.20;99.90
22633;DHT22;11483;55.828;37.488;2022-09-27T07:35:26;14.20;99.90
22633;DHT22;11483;55.828;37.488;2022-09-27T07:37:54;14.20;99.90
22633;DHT22;11483;55.828;37.488;2022-09-27T07:40:20;14.50;99.90
22633;DHT22;11483;55.828;37.488;2022-09-27T07:42:46;14.60;99.90
22633;DHT22;11483;55.828;37.488;2022-09-27T07:45:12;14.40;99.90
22633;DHT22;11483;55.828;37.488;2022-09-27T07:47:39;14.10;99.90
22633;DHT22;11483;55.828;37.488;2022-09-27T07:50:07;13.90;99.90
22633;DHT22;11483;55.828;37.488;2022-09-27T07:52:39;14.00;99.90
22633;DHT22;11483;55.828;37.488;2022-09-27T07:55:07;14.30;99.90
22633;DHT22;11483;55.828;37.488;2022-09-27T07:57:33;14.70;99.90
22633;DHT22;11483;55.828;37.488;2022-09-27T07:59:59;14.60;99.90
22633;DHT22;11483;55.828;37.488;2022-09-27T08:02:26;14.30;99.90
22633;DHT22;11483;55.828;37.488;2022-09-27T08:04:52;14.10;99.90
22633;DHT22;11483;55.828;37.488;2022-09-27T08:07:18;14.20;99.90
22633;DHT22;11483;55.828;37.488;2022-09-27T08:09:44;14.50;99.90
22633;DHT22;11483;55.828;37.488;2022-09-27T08:12:11;14.80;99.90
22633;DHT22;11483;55.828;37.488;2022-09-27T08:14:36;14.90;99.90
22633;DHT22;11483;55.828;37.488;2022-09-27T08:17:05;14.90;99.90
22633;DHT22;11483;55.828;37.488;2022-09-27T08:19:34;14.90;99.90
22633;DHT22;11483;55.828;37.488;2022-09-27T08:22:01;15.10;99.90
22633;DHT22;11483;55.828;37.488;2022-09-27T08:24:26;15.50;99.90
22633;DHT22;11483;55.828;37.488;2022-09-27T08:26:53;15.90;99.90
22633;DHT22;11483;55.828;37.488;2022-09-27T08:29:20;15.90;99.90
22633;DHT22;11483;55.828;37.488;2022-09-27T08:31:45;17.20;99.90
22633;DHT22;11483;55.828;37.488;2022-09-27T08:34:11;18.80;99.90
22633;DHT22;11483;55.828;37.488;2022-09-27T08:36:37;19.10;99.90
22633;DHT22;11483;55.828;37.488;2022-09-27T08:39:03;18.60;99.90
22633;DHT22;11483;55.828;37.488;2022-09-27T08:44:10;18.30;99.90
22633;DHT22;11483;55.828;37.488;2022-09-27T08:47:24;20.70;99.90
22633;DHT22;11483;55.828;37.488;2022-09-27T08:49:50;23.90;99.90
22633;DHT22;11483;55.828;37.488;2022-09-27T08:52:39;26.90;99.90
22633;DHT22;11483;55.828;37.488;2022-09-27T08:55:31;28.30;90.10
22633;DHT22;11483;55.828;37.488;2022-09-27T08:58:03;26.80;83.70
22633;DHT22;11483;55.828;37.488;2022-09-27T09:00:34;25.20;87.70
22633;DHT22;11483;55.828;37.488;2022-09-27T09:03:01;23.20;91.90
22633;DHT22;11483;55.828;37.488;2022-09-27T09:05:30;21.50;93.30
22633;DHT22;11483;55.828;37.488;2022-09-27T09:10:59;21.50;98.30
22633;DHT22;11483;55.828;37.488;2022-09-27T09:14:33;23.00;97.40
22633;DHT22;11483;55.828;37.488;2022-09-27T09:19:52;24.10;95.20
22633;DHT22;11483;55.828;37.488;2022-09-27T09:33:48;26.00;75.40
22633;DHT22;11483;55.828;37.488;2022-09-27T09:36:26;23.90;81.20
22633;DHT22;11483;55.828;37.488;2022-09-27T09:39:03;22.80;85.20
22633;DHT22;11483;55.828;37.488;2022-09-27T09:41:38;21.80;90.70
22633;DHT22;11483;55.828;37.488;2022-09-27T09:44:21;21.10;92.20
22633;DHT22;11483;55.828;37.488;2022-09-27T09:46:50;20.50;94.60
22633;DHT22;11483;55.828;37.488;2022-09-27T09:49:23;20.70;96.80
22633;DHT22;11483;55.828;37.488;2022-09-27T09:51:51;22.00;95.80
22633;DHT22;11483;55.828;37.488;2022-09-27T09:54:52;23.90;93.90
22633;DHT22;11483;55.828;37.488;2022-09-27T10:00:35;22.00;92.60
22633;DHT22;11483;55.828;37.488;2022-09-27T10:03:03;20.90;94.60
22633;DHT22;11483;55.828;37.488;2022-09-27T10:05:29;19.90;97.40
22633;DHT22;11483;55.828;37.488;2022-09-27T10:07:58;19.40;98.10
22633;DHT22;11483;55.828;37.488;2022-09-27T10:10:25;19.10;99.90
22633;DHT22;11483;55.828;37.488;2022-09-27T10:12:51;20.40;99.90
22633;DHT22;11483;55.828;37.488;2022-09-27T10:15:19;21.50;99.20
22633;DHT22;11483;55.828;37.488;2022-09-27T10:17:48;21.40;97.00
22633;DHT22;11483;55.828;37.488;2022-09-27T10:20:27;21.70;96.40
22633;DHT22;11483;55.828;37.488;2022-09-27T10:22:59;21.40;95.80
22633;DHT22;11483;55.828;37.488;2022-09-27T10:25:45;20.50;96.20
22633;DHT22;11483;55.828;37.488;2022-09-27T10:28:35;19.90;99.10
22633;DHT22;11483;55.828;37.488;2022-09-27T10:31:19;20.10;99.00
22633;DHT22;11483;55.828;37.488;2022-09-27T10:33:58;20.30;98.90
22633;DHT22;11483;55.828;37.488;2022-09-27T10:36:28;20.20;98.50
22633;DHT22;11483;55.828;37.488;2022-09-27T10:38:56;20.20;98.80
22633;DHT22;11483;55.828;37.488;2022-09-27T10:41:30;19.20;99.00
22633;DHT22;11483;55.828;37.488;2022-09-27T10:43:56;18.50;99.90
22633;DHT22;11483;55.828;37.488;2022-09-27T10:46:28;18.30;99.90
22633;DHT22;11483;55.828;37.488;2022-09-27T10:51:58;17.90;99.90
22633;DHT22;11483;55.828;37.488;2022-09-27T10:54:29;18.40;99.90
22633;DHT22;11483;55.828;37.488;2022-09-27T10:56:58;19.80;99.90
22633;DHT22;11483;55.828;37.488;2022-09-27T10:59:26;20.50;99.90
22633;DHT22;11483;55.828;37.488;2022-09-27T11:01:55;21.20;98.40
22633;DHT22;11483;55.828;37.488;2022-09-27T11:04:32;21.30;98.50
22633;DHT22;11483;55.828;37.488;2022-09-27T11:07:16;21.30;96.70
22633;DHT22;11483;55.828;37.488;2022-09-27T11:09:54;21.10;96.90
22633;DHT22;11483;55.828;37.488;2022-09-27T11:12:21;20.70;98.20
22633;DHT22;11483;55.828;37.488;2022-09-27T11:15:14;20.60;98.00
22633;DHT22;11483;55.828;37.488;2022-09-27T11:20:39;19.50;99.00
22633;DHT22;11483;55.828;37.488;2022-09-27T11:46:42;20.70;83.90
22633;DHT22;11483;55.828;37.488;2022-09-27T11:49:16;20.10;90.40
22633;DHT22;11483;55.828;37.488;2022-09-27T11:55:33;18.90;91.20
22633;DHT22;11483;55.828;37.488;2022-09-27T11:57:25;19.20;92.80
22633;DHT22;11483;55.828;37.488;2022-09-27T12:07:51;21.00;88.20
22633;DHT22;11483;55.828;37.488;2022-09-27T12:10:22;21.40;84.00
22633;DHT22;11483;55.828;37.488;2022-09-27T12:12:52;21.90;82.40
22633;DHT22;11483;55.828;37.488;2022-09-27T12:15:23;22.90;80.00
22633;DHT22;11483;55.828;37.488;2022-09-27T12:17:54;23.70;77.40
22633;DHT22;11483;55.828;37.488;2022-09-27T12:20:27;24.10;74.60
22633;DHT22;11483;55.828;37.488;2022-09-27T12:22:56;24.30;73.70
22633;DHT22;11483;55.828;37.488;2022-09-27T12:25:24;24.90;73.90
22633;DHT22;11483;55.828;37.488;2022-09-27T12:27:55;25.90;72.80
22633;DHT22;11483;55.828;37.488;2022-09-27T12:30:23;26.50;69.00
22633;DHT22;11483;55.828;37.488;2022-09-27T12:32:55;27.20;67.40
22633;DHT22;11483;55.828;37.488;2022-09-27T12:35:33;27.10;63.60
22633;DHT22;11483;55.828;37.488;2022-09-27T12:38:16;26.60;63.40
22633;DHT22;11483;55.828;37.488;2022-09-27T12:40:47;26.10;65.30
22633;DHT22;11483;55.828;37.488;2022-09-27T12:43:24;26.20;67.00
22633;DHT22;11483;55.828;37.488;2022-09-27T12:48:42;26.90;69.50
22633;DHT22;11483;55.828;37.488;2022-09-27T12:51:20;27.30;65.50
22633;DHT22;11483;55.828;37.488;2022-09-27T13:10:48;27.70;62.50
22633;DHT22;11483;55.828;37.488;2022-09-27T13:13:22;26.60;64.30
22633;DHT22;11483;55.828;37.488;2022-09-27T13:15:56;26.20;66.60
22633;DHT22;11483;55.828;37.488;2022-09-27T13:21:03;26.10;66.50
22633;DHT22;11483;55.828;37.488;2022-09-27T13:26:00;23.60;69.80
22633;DHT22;11483;55.828;37.488;2022-09-27T13:31:00;22.30;72.80
22633;DHT22;11483;55.828;37.488;2022-09-27T13:33:31;21.60;75.00
22633;DHT22;11483;55.828;37.488;2022-09-27T13:41:27;21.70;75.40
22633;DHT22;11483;55.828;37.488;2022-09-27T13:43:59;21.00;77.00
22633;DHT22;11483;55.828;37.488;2022-09-27T13:46:29;20.20;78.90
22633;DHT22;11483;55.828;37.488;2022-09-27T13:49:04;19.20;82.10
22633;DHT22;11483;55.828;37.488;2022-09-27T13:51:41;18.30;85.50
22633;DHT22;11483;55.828;37.488;2022-09-27T13:56:53;18.80;88.00
22633;DHT22;11483;55.828;37.488;2022-09-27T13:59:44;18.00;90.30
22633;DHT22;11483;55.828;37.488;2022-09-27T14:02:17;17.60;91.30
22633;DHT22;11483;55.828;37.488;2022-09-27T14:04:49;16.90;94.30
22633;DHT22;11483;55.828;37.488;2022-09-27T14:07:42;16.60;95.90
22633;DHT22;11483;55.828;37.488;2022-09-27T14:10:17;16.00;98.60
22633;DHT22;11483;55.828;37.488;2022-09-27T14:12:46;15.60;99.90
22633;DHT22;11483;55.828;37.488;2022-09-27T14:15:20;15.20;99.90
22633;DHT22;11483;55.828;37.488;2022-09-27T14:17:47;15.10;99.90
22633;DHT22;11483;55.828;37.488;2022-09-27T14:20:43;14.90;99.90
22633;DHT22;11483;55.828;37.488;2022-09-27T14:23:17;14.60;99.90
22633;DHT22;11483;55.828;37.488;2022-09-27T14:25:45;14.50;99.90
22633;DHT22;11483;55.828;37.488;2022-09-27T14:28:28;14.30;99.90
22633;DHT22;11483;55.828;37.488;2022-09-27T14:31:14;14.20;99.90
22633;DHT22;11483;55.828;37.488;2022-09-27T14:33:42;14.50;99.90
22633;DHT22;11483;55.828;37.488;2022-09-27T14:36:16;14.80;99.90
22633;DHT22;11483;55.828;37.488;2022-09-27T14:39:11;14.60;99.90
22633;DHT22;11483;55.828;37.488;2022-09-27T14:41:37;14.50;99.90
22633;DHT22;11483;55.828;37.488;2022-09-27T14:44:03;14.40;99.90
22633;DHT22;11483;55.828;37.488;2022-09-27T14:46:30;14.20;99.90
22633;DHT22;11483;55.828;37.488;2022-09-27T14:48:56;14.00;99.90
22633;DHT22;11483;55.828;37.488;2022-09-27T14:51:27;14.10;99.90
22633;DHT22;11483;55.828;37.488;2022-09-27T14:53:54;14.10;99.90
22633;DHT22;11483;55.828;37.488;2022-09-27T14:56:24;13.90;99.90
22633;DHT22;11483;55.828;37.488;2022-09-27T14:58:53;13.80;99.90
22633;DHT22;11483;55.828;37.488;2022-09-27T15:01:20;13.70;99.90
22633;DHT22;11483;55.828;37.488;2022-09-27T15:03:48;13.70;99.90
22633;DHT22;11483;55.828;37.488;2022-09-27T15:06:14;13.60;99.90
22633;DHT22;11483;55.828;37.488;2022-09-27T15:08:40;13.70;99.90
22633;DHT22;11483;55.828;37.488;2022-09-27T15:11:07;13.60;99.90
22633;DHT22;11483;55.828;37.488;2022-09-27T15:13:35;13.60;99.90
22633;DHT22;11483;55.828;37.488;2022-09-27T15:16:08;13.40;99.90
22633;DHT22;11483;55.828;37.488;2022-09-27T15:18:44;13.30;99.90
22633;DHT22;11483;55.828;37.488;2022-09-27T15:21:35;13.20;99.90
22633;DHT22;11483;55.828;37.488;2022-09-27T15:24:02;13.00;99.90
22633;DHT22;11483;55.828;37.488;2022-09-27T15:26:35;13.00;99.90
22633;DHT22;11483;55.828;37.488;2022-09-27T15:29:02;12.80;99.90
22633;DHT22;11483;55.828;37.488;2022-09-27T15:31:34;12.90;99.90
22633;DHT22;11483;55.828;37.488;2022-09-27T15:34:01;12.90;99.90
22633;DHT22;11483;55.828;37.488;2022-09-27T15:36:55;12.90;99.90
22633;DHT22;11483;55.828;37.488;2022-09-27T15:39:33;12.90;99.90
22633;DHT22;11483;55.828;37.488;2022-09-27T15:42:12;12.80;99.90
22633;DHT22;11483;55.828;37.488;2022-09-27T15:49:57;12.70;99.90
22633;DHT22;11483;55.828;37.488;2022-09-27T15:52:43;12.70;99.90
22633;DHT22;11483;55.828;37.488;2022-09-27T15:55:14;12.60;99.90
22633;DHT22;11483;55.828;37.488;2022-09-27T15:57:42;12.60;99.90
22633;DHT22;11483;55.828;37.488;2022-09-27T16:00:14;12.60;99.90
22633;DHT22;11483;55.828;37.488;2022-09-27T16:02:44;12.50;99.90
22633;DHT22;11483;55.828;37.488;2022-09-27T16:05:10;12.40;99.90
22633;DHT22;11483;55.828;37.488;2022-09-27T16:07:36;12.40;99.90
22633;DHT22;11483;55.828;37.488;2022-09-27T16:10:12;12.40;99.90
22633;DHT22;11483;55.828;37.488;2022-09-27T16:12:39;12.40;99.90
22633;DHT22;11483;55.828;37.488;2022-09-27T16:15:06;12.30;99.90
22633;DHT22;11483;55.828;37.488;2022-09-27T16:17:32;12.30;99.90
22633;DHT22;11483;55.828;37.488;2022-09-27T16:20:02;12.20;99.90
22633;DHT22;11483;55.828;37.488;2022-09-27T16:22:28;12.10;99.90
22633;DHT22;11483;55.828;37.488;2022-09-27T16:24:55;12.00;99.90
22633;DHT22;11483;55.828;37.488;2022-09-27T16:27:24;11.90;99.90
22633;DHT22;11483;55.828;37.488;2022-09-27T16:29:54;11.90;99.90
22633;DHT22;11483;55.828;37.488;2022-09-27T16:32:22;11.90;99.90
22633;DHT22;11483;55.828;37.488;2022-09-27T16:34:49;11.90;99.90
22633;DHT22;11483;55.828;37.488;2022-09-27T16:37:14;11.90;99.90
22633;DHT22;11483;55.828;37.488;2022-09-27T16:39:40;11.90;99.90
22633;DHT22;11483;55.828;37.488;2022-09-27T16:42:06;11.80;99.90
22633;DHT22;11483;55.828;37.488;2022-09-27T16:44:33;11.80;99.90
22633;DHT22;11483;55.828;37.488;2022-09-27T16:47:04;11.80;99.90
22633;DHT22;11483;55.828;37.488;2022-09-27T16:49:32;11.70;99.90
22633;DHT22;11483;55.828;37.488;2022-09-27T16:52:17;11.70;99.90
22633;DHT22;11483;55.828;37.488;2022-09-27T16:54:42;11.80;99.90
22633;DHT22;11483;55.828;37.488;2022-09-27T16:57:08;11.70;99.90
22633;DHT22;11483;55.828;37.488;2022-09-27T16:59:35;11.60;99.90
22633;DHT22;11483;55.828;37.488;2022-09-27T17:02:01;11.60;99.90
22633;DHT22;11483;55.828;37.488;2022-09-27T17:04:30;11.60;99.90
22633;DHT22;11483;55.828;37.488;2022-09-27T17:06:57;11.60;99.90
22633;DHT22;11483;55.828;37.488;2022-09-27T17:09:23;11.60;99.90
22633;DHT22;11483;55.828;37.488;2022-09-27T17:11:50;11.60;99.90
22633;DHT22;11483;55.828;37.488;2022-09-27T17:14:16;11.60;99.90
22633;DHT22;11483;55.828;37.488;2022-09-27T17:16:43;11.60;99.90
22633;DHT22;11483;55.828;37.488;2022-09-27T17:19:09;11.50;99.90
22633;DHT22;11483;55.828;37.488;2022-09-27T17:21:35;11.50;99.90
22633;DHT22;11483;55.828;37.488;2022-09-27T17:24:02;11.50;99.90
22633;DHT22;11483;55.828;37.488;2022-09-27T17:26:28;11.40;99.90
22633;DHT22;11483;55.828;37.488;2022-09-27T17:28:58;11.30;99.90
22633;DHT22;11483;55.828;37.488;2022-09-27T17:31:26;11.40;99.90
22633;DHT22;11483;55.828;37.488;2022-09-27T17:33:54;11.30;99.90
22633;DHT22;11483;55.828;37.488;2022-09-27T17:36:23;11.30;99.90
22633;DHT22;11483;55.828;37.488;2022-09-27T17:38:50;11.20;99.90
22633;DHT22;11483;55.828;37.488;2022-09-27T17:41:20;11.20;99.90
22633;DHT22;11483;55.828;37.488;2022-09-27T17:43:50;11.20;99.90
22633;DHT22;11483;55.828;37.488;2022-09-27T17:46:18;11.10;99.90
22633;DHT22;11483;55.828;37.488;2022-09-27T17:48:44;11.20;99.90
22633;DHT22;11483;55.828;37.488;2022-09-27T17:51:30;11.20;99.90
22633;DHT22;11483;55.828;37.488;2022-09-27T17:53:56;11.20;99.90
22633;DHT22;11483;55.828;37.488;2022-09-27T17:56:26;11.20;99.90
22633;DHT22;11483;55.828;37.488;2022-09-27T17:58:54;11.20;99.90
22633;DHT22;11483;55.828;37.488;2022-09-27T18:01:22;11.20;99.90
22633;DHT22;11483;55.828;37.488;2022-09-27T18:03:52;11.20;99.90
22633;DHT22;11483;55.828;37.488;2022-09-27T18:06:19;11.10;99.90
22633;DHT22;11483;55.828;37.488;2022-09-27T18:08:45;11.10;99.90